Time;durP1;ratioP1;P1;durP2;ratioP2;P2;SDS_P1;SDS_P2;PMS_P1;PMS_P2;Temp;Humidity;BMP_temperature;BMP_pressure;BME280_temperature;BME280_humidity;BME280_pressure;Samples;Min_cycle;Max_cycle;Signal;HPM_P1;HPM_P2
2023/12/28 00:01:47;;;;;;;14.97;13.67;;;3.20;99.90;;;;;;4901592;29;20197;-77
2023/12/28 00:04:15;;;;;;;14.17;13.07;;;3.10;99.90;;;;;;4903912;29;20193;-77
2023/12/28 00:06:42;;;;;;;13.90;12.80;;;3.10;99.90;;;;;;4900704;29;20224;-77
2023/12/28 00:09:09;;;;;;;14.63;13.53;;;3.00;99.90;;;;;;4900737;29;20197;-76
2023/12/28 00:11:37;;;;;;;14.30;13.10;;;3.10;99.90;;;;;;4901474;29;20228;-76
2023/12/28 00:14:04;;;;;;;15.00;13.80;;;3.00;99.90;;;;;;4901563;29;20689;-77
2023/12/28 00:16:33;;;;;;;14.47;13.37;;;3.00;99.90;;;;;;4901741;29;20243;-77
2023/12/28 00:19:01;;;;;;;14.47;13.27;;;3.00;99.90;;;;;;4900476;29;20201;-77
2023/12/28 00:21:29;;;;;;;14.77;13.60;;;2.90;99.90;;;;;;4901741;29;20261;-77
2023/12/28 00:23:57;;;;;;;16.10;14.80;;;2.80;99.90;;;;;;4901523;29;20192;-76
2023/12/28 00:26:24;;;;;;;15.03;13.97;;;2.70;99.90;;;;;;4899812;29;20279;-76
2023/12/28 00:29:02;;;;;;;15.70;14.50;;;2.70;99.90;;;;;;4901367;29;20208;-77
2023/12/28 00:31:29;;;;;;;15.23;14.03;;;2.70;99.90;;;;;;4901582;29;20208;-76
2023/12/28 00:33:56;;;;;;;15.63;14.33;;;2.60;99.90;;;;;;4900324;29;20320;-76
2023/12/28 00:36:24;;;;;;;15.63;14.33;;;2.60;99.90;;;;;;4899709;29;20217;-76
2023/12/28 00:38:53;;;;;;;15.07;13.97;;;2.60;99.90;;;;;;4900393;29;20236;-77
2023/12/28 00:41:20;;;;;;;14.67;13.53;;;2.60;99.90;;;;;;4899651;29;20495;-77
2023/12/28 00:43:46;;;;;;;15.20;14.10;;;2.50;99.90;;;;;;4900129;29;20200;-77
2023/12/28 00:46:13;;;;;;;15.00;13.90;;;2.40;99.90;;;;;;4899920;29;20228;-77
2023/12/28 00:48:40;;;;;;;15.30;14.10;;;2.30;99.90;;;;;;4901328;29;20207;-76
2023/12/28 00:51:08;;;;;;;15.30;14.17;;;2.20;99.90;;;;;;4899968;29;20204;-76
2023/12/28 00:53:35;;;;;;;15.07;13.77;;;2.20;99.90;;;;;;4900165;29;20269;-76
2023/12/28 00:56:03;;;;;;;14.07;13.07;;;2.10;99.90;;;;;;4899347;29;20619;-77
2023/12/28 00:58:30;;;;;;;14.67;13.57;;;2.10;99.90;;;;;;4900023;29;20445;-77
2023/12/28 01:00:58;;;;;;;14.33;13.13;;;2.00;99.90;;;;;;4901094;29;20204;-76
2023/12/28 01:03:25;;;;;;;15.23;13.93;;;2.10;99.90;;;;;;4900041;29;20596;-76
2023/12/28 01:05:54;;;;;;;14.03;12.93;;;2.10;99.90;;;;;;4905143;29;20751;-76
2023/12/28 01:08:20;;;;;;;14.37;13.23;;;2.10;99.90;;;;;;4903549;29;20203;-76
2023/12/28 01:10:47;;;;;;;14.17;13.10;;;2.10;99.90;;;;;;4899525;29;20264;-76
2023/12/28 01:13:16;;;;;;;13.57;12.70;;;2.20;99.90;;;;;;4900371;29;20862;-76
2023/12/28 01:15:42;;;;;;;13.97;12.97;;;2.20;99.90;;;;;;4899808;29;20288;-77
2023/12/28 01:18:10;;;;;;;13.03;12.03;;;2.30;99.90;;;;;;4899002;29;20578;-77
2023/12/28 01:20:37;;;;;;;13.70;12.70;;;2.40;99.90;;;;;;4900006;29;20216;-76
2023/12/28 01:23:04;;;;;;;13.53;12.53;;;2.40;99.90;;;;;;4899470;29;20471;-77
2023/12/28 01:25:32;;;;;;;13.60;12.57;;;2.40;99.90;;;;;;4900282;29;20256;-76
2023/12/28 01:27:59;;;;;;;13.77;12.70;;;2.40;99.90;;;;;;4901412;29;20508;-77
2023/12/28 01:30:28;;;;;;;13.00;12.00;;;2.40;99.90;;;;;;4900379;29;20438;-76
2023/12/28 01:32:55;;;;;;;13.40;12.40;;;2.40;99.90;;;;;;4899282;29;20227;-77
2023/12/28 01:35:22;;;;;;;12.47;11.67;;;2.40;99.90;;;;;;4908101;29;20528;-76
2023/12/28 01:37:49;;;;;;;12.83;11.97;;;2.50;99.90;;;;;;4900518;29;20707;-76
2023/12/28 01:40:16;;;;;;;12.77;11.67;;;2.70;99.90;;;;;;4899116;29;20209;-76
2023/12/28 01:42:43;;;;;;;12.27;11.47;;;2.80;99.90;;;;;;4898458;29;20261;-76
2023/12/28 01:45:10;;;;;;;12.30;11.50;;;3.00;99.90;;;;;;4900831;29;20192;-76
2023/12/28 01:47:39;;;;;;;12.30;11.50;;;3.20;99.90;;;;;;4895061;29;20264;-77
2023/12/28 01:50:08;;;;;;;11.60;10.90;;;3.30;99.90;;;;;;4904863;29;20201;-77
2023/12/28 01:52:35;;;;;;;11.57;10.77;;;3.40;99.90;;;;;;4900378;29;20205;-76
2023/12/28 01:55:03;;;;;;;11.33;10.63;;;3.50;99.90;;;;;;4907272;29;20236;-77
2023/12/28 01:57:30;;;;;;;11.93;11.13;;;3.60;99.90;;;;;;4900184;29;20224;-76
2023/12/28 02:00:01;;;;;;;11.30;10.60;;;3.70;99.90;;;;;;4899132;29;20200;-77
2023/12/28 02:02:28;;;;;;;11.50;10.77;;;3.90;99.90;;;;;;4899312;29;20228;-77
2023/12/28 02:04:56;;;;;;;11.30;10.60;;;4.00;99.90;;;;;;4891834;29;20204;-77
2023/12/28 02:07:25;;;;;;;11.10;10.40;;;4.10;99.90;;;;;;4899590;29;20212;-77
2023/12/28 02:09:52;;;;;;;11.17;10.47;;;4.20;99.90;;;;;;4898813;29;20198;-77
2023/12/28 02:12:19;;;;;;;11.60;10.80;;;4.30;99.90;;;;;;4902049;29;20204;-77
2023/12/28 02:14:46;;;;;;;11.53;10.83;;;4.40;99.90;;;;;;4900462;29;20209;-76
2023/12/28 02:17:16;;;;;;;11.43;10.73;;;4.40;99.90;;;;;;4900477;29;20640;-77
2023/12/28 02:19:50;;;;;;;11.20;10.50;;;4.50;99.90;;;;;;4899682;29;20204;-77
2023/12/28 02:22:18;;;;;;;11.80;11.00;;;4.60;99.90;;;;;;4900683;29;20211;-77
2023/12/28 02:25:03;;;;;;;9.20;8.60;;;4.60;99.90;;;;;;4899577;29;20552;-76
2023/12/28 02:27:30;;;;;;;9.27;8.57;;;4.70;99.90;;;;;;4899606;29;20231;-77
2023/12/28 02:29:59;;;;;;;9.23;8.63;;;4.80;99.90;;;;;;4899346;29;20203;-77
2023/12/28 02:32:36;;;;;;;8.50;8.00;;;4.80;99.90;;;;;;4916325;29;20204;-77
2023/12/28 02:35:14;;;;;;;8.83;8.23;;;4.90;99.90;;;;;;4915657;29;20216;-77
2023/12/28 02:37:42;;;;;;;8.30;7.80;;;4.90;99.90;;;;;;4915354;29;20224;-77
2023/12/28 02:40:12;;;;;;;8.80;8.20;;;4.90;99.90;;;;;;4923308;29;20214;-77
2023/12/28 02:42:39;;;;;;;8.93;8.40;;;4.90;99.90;;;;;;4909692;29;20212;-77
2023/12/28 02:45:07;;;;;;;9.20;8.60;;;5.00;99.90;;;;;;4899424;29;20304;-77
2023/12/28 02:47:34;;;;;;;8.63;8.10;;;4.90;99.90;;;;;;4897547;29;20232;-77
2023/12/28 02:50:01;;;;;;;8.87;8.37;;;4.90;99.90;;;;;;4898000;29;20256;-77
2023/12/28 02:52:27;;;;;;;9.23;8.63;;;4.90;99.90;;;;;;4897752;29;20581;-77
2023/12/28 02:54:54;;;;;;;9.27;8.67;;;4.90;99.90;;;;;;4898141;29;20228;-76
2023/12/28 02:57:22;;;;;;;9.10;8.50;;;4.80;99.90;;;;;;4918541;23;20704;-75
2023/12/28 02:59:49;;;;;;;9.23;8.63;;;4.70;99.90;;;;;;4894918;29;20254;-75
2023/12/28 03:02:16;;;;;;;9.10;8.50;;;4.70;99.90;;;;;;4894988;29;20204;-75
2023/12/28 03:04:43;;;;;;;9.10;8.50;;;4.60;99.90;;;;;;4903038;29;20211;-75
2023/12/28 03:07:09;;;;;;;9.83;9.13;;;4.50;99.90;;;;;;4896861;29;20221;-75
2023/12/28 03:09:38;;;;;;;9.93;9.23;;;4.40;99.90;;;;;;4895268;29;20213;-75
2023/12/28 03:12:06;;;;;;;9.97;9.27;;;4.30;99.90;;;;;;4894809;29;20715;-75
2023/12/28 03:14:34;;;;;;;9.20;8.60;;;4.20;99.90;;;;;;4897401;29;20303;-75
2023/12/28 03:17:01;;;;;;;9.50;8.80;;;4.10;99.90;;;;;;4907046;29;20221;-75
2023/12/28 03:19:29;;;;;;;9.70;9.00;;;4.10;99.90;;;;;;4898848;29;20211;-75
2023/12/28 03:21:56;;;;;;;9.47;8.80;;;4.10;99.90;;;;;;4898677;29;20296;-75
2023/12/28 03:24:23;;;;;;;9.97;9.27;;;4.10;99.90;;;;;;4898940;29;20676;-75
2023/12/28 03:26:50;;;;;;;9.43;8.77;;;4.10;99.90;;;;;;4898503;29;20253;-75
2023/12/28 03:29:17;;;;;;;9.70;9.00;;;4.10;99.90;;;;;;4900193;29;20291;-75
2023/12/28 03:31:45;;;;;;;9.70;9.03;;;4.20;99.90;;;;;;4898471;29;20196;-75
2023/12/28 03:34:12;;;;;;;9.50;8.80;;;4.30;99.90;;;;;;4899059;29;20232;-75
2023/12/28 03:36:39;;;;;;;9.40;8.70;;;4.30;99.90;;;;;;4898294;29;20290;-75
2023/12/28 03:39:06;;;;;;;9.03;8.43;;;4.40;99.90;;;;;;4898656;29;20355;-75
2023/12/28 03:41:33;;;;;;;9.17;8.50;;;4.40;99.90;;;;;;4899587;29;20200;-75
2023/12/28 03:44:00;;;;;;;8.90;8.30;;;4.50;99.90;;;;;;4899628;29;20220;-75
2023/12/28 03:46:27;;;;;;;9.43;8.83;;;4.50;99.90;;;;;;4898495;29;20221;-75
2023/12/28 03:48:55;;;;;;;9.03;8.43;;;4.50;99.90;;;;;;4899597;29;20283;-75
2023/12/28 03:51:22;;;;;;;8.83;8.30;;;4.60;99.90;;;;;;4899487;29;20200;-75
2023/12/28 03:53:49;;;;;;;9.03;8.43;;;4.60;99.90;;;;;;4899625;29;20257;-75
2023/12/28 03:56:20;;;;;;;8.60;8.10;;;4.70;99.90;;;;;;4902686;29;20219;-75
2023/12/28 03:58:47;;;;;;;8.90;8.30;;;4.70;99.90;;;;;;4901214;29;20216;-75
2023/12/28 04:01:14;;;;;;;8.30;7.80;;;4.80;99.90;;;;;;4899544;29;20272;-75
2023/12/28 04:03:41;;;;;;;8.87;8.27;;;4.90;99.90;;;;;;4898356;29;20208;-75
2023/12/28 04:06:09;;;;;;;8.20;7.77;;;4.90;99.90;;;;;;4904021;29;20286;-75
2023/12/28 04:08:36;;;;;;;8.30;7.80;;;5.00;99.90;;;;;;4898243;29;20217;-75
2023/12/28 04:11:03;;;;;;;8.00;7.50;;;5.10;99.90;;;;;;4897868;29;20272;-75
2023/12/28 04:13:29;;;;;;;7.80;7.40;;;5.20;99.90;;;;;;4897947;29;20208;-75
2023/12/28 04:15:56;;;;;;;8.30;7.80;;;5.20;99.90;;;;;;4897818;29;20236;-75
2023/12/28 04:18:23;;;;;;;8.70;8.17;;;5.30;99.90;;;;;;4899429;29;20217;-75
2023/12/28 04:20:52;;;;;;;8.27;7.77;;;5.30;99.90;;;;;;4897588;29;20201;-77
2023/12/28 04:23:21;;;;;;;8.00;7.50;;;5.40;99.90;;;;;;4900484;29;20207;-75
2023/12/28 04:25:47;;;;;;;8.20;7.70;;;5.40;99.90;;;;;;4897443;29;20287;-75
2023/12/28 04:28:14;;;;;;;8.10;7.60;;;5.50;99.90;;;;;;4899292;29;20284;-75
2023/12/28 04:30:42;;;;;;;7.87;7.43;;;5.60;99.90;;;;;;4897810;29;20294;-77
2023/12/28 04:33:08;;;;;;;7.60;7.20;;;5.70;99.90;;;;;;4898027;29;20206;-77
2023/12/28 04:35:35;;;;;;;7.80;7.40;;;5.70;99.90;;;;;;4901215;29;20221;-75
2023/12/28 04:38:03;;;;;;;7.60;7.20;;;5.70;99.90;;;;;;4889968;29;20246;-75
2023/12/28 04:40:33;;;;;;;8.10;7.60;;;5.70;99.90;;;;;;4892104;29;20207;-75
2023/12/28 04:43:00;;;;;;;9.53;9.03;;;5.70;99.90;;;;;;4897979;29;20631;-75
2023/12/28 04:45:27;;;;;;;10.30;9.70;;;5.60;99.90;;;;;;4899321;29;20225;-75
2023/12/28 04:47:54;;;;;;;10.40;9.80;;;5.60;99.90;;;;;;4903354;29;20229;-75
2023/12/28 04:50:21;;;;;;;9.50;8.90;;;5.50;99.90;;;;;;4901885;29;20198;-75
2023/12/28 04:52:49;;;;;;;8.50;7.90;;;5.50;99.90;;;;;;4908352;29;20589;-75
2023/12/28 04:55:16;;;;;;;8.90;8.20;;;5.50;99.90;;;;;;4904326;29;20656;-75
2023/12/28 04:57:44;;;;;;;8.43;7.83;;;5.50;99.90;;;;;;4899663;29;20661;-75
2023/12/28 05:00:12;;;;;;;8.67;8.07;;;5.50;99.90;;;;;;4898796;29;20243;-76
2023/12/28 05:02:39;;;;;;;8.53;7.93;;;5.50;99.90;;;;;;4897296;29;20214;-75
2023/12/28 05:05:08;;;;;;;8.40;7.80;;;5.50;99.90;;;;;;4907340;29;20687;-75
2023/12/28 05:07:35;;;;;;;8.33;7.83;;;5.50;99.90;;;;;;4894042;29;20645;-75
2023/12/28 05:10:02;;;;;;;8.43;7.93;;;5.60;99.90;;;;;;4898565;29;20211;-75
2023/12/28 05:12:29;;;;;;;8.70;8.10;;;5.60;99.90;;;;;;4898122;29;20206;-75
2023/12/28 05:14:57;;;;;;;8.47;7.87;;;5.60;99.90;;;;;;4897205;29;20753;-75
2023/12/28 05:17:23;;;;;;;8.27;7.67;;;5.60;99.90;;;;;;4906136;29;20832;-75
2023/12/28 05:19:50;;;;;;;8.53;7.83;;;5.60;99.90;;;;;;4896757;29;20355;-75
2023/12/28 05:22:17;;;;;;;8.20;7.70;;;5.60;99.90;;;;;;4907219;29;20330;-75
2023/12/28 05:24:44;;;;;;;8.00;7.40;;;5.60;99.90;;;;;;4898665;29;20591;-76
2023/12/28 05:27:10;;;;;;;8.10;7.60;;;5.70;99.90;;;;;;4897036;29;20225;-75
2023/12/28 05:29:37;;;;;;;7.97;7.47;;;5.80;99.90;;;;;;4893957;29;20282;-74
2023/12/28 05:32:06;;;;;;;9.90;9.30;;;5.80;99.90;;;;;;4900818;29;20262;-75
2023/12/28 05:34:33;;;;;;;10.23;9.63;;;5.90;99.90;;;;;;4893261;29;20226;-75
2023/12/28 05:37:00;;;;;;;7.57;7.07;;;5.90;99.90;;;;;;4895334;29;20754;-74
2023/12/28 05:39:26;;;;;;;10.10;9.50;;;6.00;99.90;;;;;;4896506;29;20636;-75
2023/12/28 05:41:53;;;;;;;9.77;9.27;;;6.00;99.90;;;;;;4896334;29;20262;-75
2023/12/28 05:44:20;;;;;;;10.20;9.60;;;6.00;99.90;;;;;;4896248;29;20206;-75
2023/12/28 05:46:47;;;;;;;9.93;9.43;;;6.10;99.90;;;;;;4897700;29;20219;-75
2023/12/28 05:49:15;;;;;;;10.10;9.60;;;6.10;99.90;;;;;;4897229;29;20683;-75
2023/12/28 05:51:42;;;;;;;10.20;9.60;;;6.10;99.90;;;;;;4897319;29;20210;-75
2023/12/28 05:54:09;;;;;;;9.80;9.30;;;6.20;99.90;;;;;;4897547;29;20212;-75
2023/12/28 05:56:36;;;;;;;10.03;9.43;;;6.20;99.90;;;;;;4897294;29;20231;-76
2023/12/28 05:59:03;;;;;;;10.10;9.50;;;6.30;99.90;;;;;;4896721;29;20212;-75
2023/12/28 06:01:29;;;;;;;10.13;9.53;;;6.40;99.90;;;;;;4896397;29;20212;-75
2023/12/28 06:03:56;;;;;;;10.00;9.50;;;6.40;99.90;;;;;;4896520;29;20223;-75
2023/12/28 06:06:24;;;;;;;10.07;9.47;;;6.40;99.90;;;;;;4897651;29;20251;-75
2023/12/28 06:08:51;;;;;;;10.17;9.57;;;6.50;99.90;;;;;;4897949;29;20263;-75
2023/12/28 06:11:19;;;;;;;10.30;9.70;;;6.50;99.90;;;;;;4898010;29;20280;-77
2023/12/28 06:13:46;;;;;;;10.17;9.57;;;6.50;99.90;;;;;;4897594;29;20562;-76
2023/12/28 06:16:13;;;;;;;10.40;9.80;;;6.60;99.90;;;;;;4899151;29;20266;-77
2023/12/28 06:18:40;;;;;;;10.50;9.90;;;6.60;99.90;;;;;;4899613;29;20210;-77
2023/12/28 06:21:09;;;;;;;10.37;9.77;;;6.60;99.90;;;;;;4897196;29;20255;-77
2023/12/28 06:23:37;;;;;;;10.70;10.00;;;6.60;99.90;;;;;;4897148;29;20267;-76
2023/12/28 06:26:10;;;;;;;10.50;9.80;;;6.70;99.90;;;;;;4897924;29;20208;-76
2023/12/28 06:28:37;;;;;;;10.37;9.77;;;6.60;99.90;;;;;;4898935;29;20207;-80
2023/12/28 06:31:04;;;;;;;10.10;9.50;;;6.70;99.90;;;;;;4898272;29;20223;-77
2023/12/28 06:33:31;;;;;;;9.57;9.07;;;6.70;99.90;;;;;;4898402;29;20564;-77
2023/12/28 06:35:58;;;;;;;9.93;9.43;;;6.70;99.90;;;;;;4899760;29;20226;-76
2023/12/28 06:38:25;;;;;;;10.50;9.70;;;6.70;99.90;;;;;;4899567;29;20229;-76
2023/12/28 06:40:54;;;;;;;10.47;9.77;;;6.70;99.90;;;;;;4899032;29;20214;-76
2023/12/28 06:43:20;;;;;;;10.20;9.60;;;6.80;99.90;;;;;;4898408;29;20201;-76
2023/12/28 06:45:47;;;;;;;10.60;10.00;;;6.80;99.90;;;;;;4897867;29;20629;-76
2023/12/28 06:48:14;;;;;;;10.63;9.93;;;6.70;99.90;;;;;;4896904;29;20250;-77
2023/12/28 06:50:41;;;;;;;11.00;10.30;;;6.60;99.90;;;;;;4898349;29;20214;-76
2023/12/28 06:53:07;;;;;;;11.03;10.23;;;6.50;99.90;;;;;;4897849;29;20210;-76
2023/12/28 06:55:35;;;;;;;10.53;9.90;;;6.50;99.90;;;;;;4896566;29;20207;-76
2023/12/28 06:58:03;;;;;;;10.80;10.20;;;6.40;99.90;;;;;;4896283;29;20599;-76
2023/12/28 07:00:30;;;;;;;10.87;10.20;;;6.40;99.90;;;;;;4897884;29;20208;-77
2023/12/28 07:02:57;;;;;;;11.47;10.80;;;6.40;99.90;;;;;;4898264;29;20202;-76
2023/12/28 07:05:24;;;;;;;11.53;10.63;;;6.30;99.90;;;;;;4898249;29;20642;-76
2023/12/28 07:07:51;;;;;;;11.77;11.07;;;6.30;99.90;;;;;;4896386;29;20281;-76
2023/12/28 07:10:17;;;;;;;11.70;10.90;;;6.30;99.90;;;;;;4897528;29;20645;-77
2023/12/28 07:12:47;;;;;;;11.60;10.90;;;6.30;99.90;;;;;;4898423;29;20744;-81
2023/12/28 07:15:15;;;;;;;11.23;10.53;;;6.30;99.90;;;;;;4901850;29;20237;-79
2023/12/28 07:17:42;;;;;;;11.17;10.57;;;6.40;99.90;;;;;;4899261;29;20235;-76
2023/12/28 07:20:10;;;;;;;11.70;10.90;;;6.50;99.90;;;;;;4899736;29;20275;-78
2023/12/28 07:22:37;;;;;;;11.60;10.90;;;6.60;99.90;;;;;;4897112;29;20280;-76
2023/12/28 07:25:05;;;;;;;11.70;11.00;;;6.70;99.90;;;;;;4898214;29;20215;-76
2023/12/28 07:27:32;;;;;;;11.20;10.50;;;6.80;99.90;;;;;;4896728;29;20223;-75
2023/12/28 07:29:59;;;;;;;11.57;10.87;;;6.90;99.90;;;;;;4895875;29;20204;-75
2023/12/28 07:32:27;;;;;;;11.00;10.40;;;7.00;99.90;;;;;;4896631;29;20202;-76
2023/12/28 07:34:54;;;;;;;11.33;10.53;;;7.20;99.90;;;;;;4896035;29;20236;-76
2023/12/28 07:37:21;;;;;;;11.53;10.83;;;7.30;99.90;;;;;;4898713;29;20235;-75
2023/12/28 07:39:48;;;;;;;11.30;10.60;;;7.40;99.90;;;;;;4898598;29;20616;-76
2023/12/28 07:42:15;;;;;;;11.10;10.40;;;7.50;99.90;;;;;;4896032;29;20208;-76
2023/12/28 07:44:42;;;;;;;10.90;10.20;;;7.60;99.90;;;;;;4896778;29;20574;-76
2023/12/28 07:47:09;;;;;;;11.00;10.30;;;7.70;99.90;;;;;;4895082;29;20241;-76
2023/12/28 07:49:37;;;;;;;10.57;9.97;;;7.90;99.90;;;;;;4894643;29;20208;-76
2023/12/28 07:52:04;;;;;;;10.90;10.20;;;7.90;99.90;;;;;;4889407;29;20264;-76
2023/12/28 07:54:31;;;;;;;10.50;9.90;;;8.00;99.90;;;;;;4895151;29;20303;-76
2023/12/28 07:56:58;;;;;;;10.77;10.17;;;8.10;99.90;;;;;;4895617;29;20346;-76
2023/12/28 07:59:25;;;;;;;8.10;7.70;;;8.10;99.90;;;;;;4897323;29;20208;-76
2023/12/28 08:01:51;;;;;;;9.80;9.30;;;8.10;99.90;;;;;;4900868;29;20244;-76
2023/12/28 08:04:18;;;;;;;11.03;10.43;;;8.20;99.90;;;;;;4905077;29;20212;-77
2023/12/28 08:06:46;;;;;;;11.30;10.60;;;8.20;99.90;;;;;;4903044;29;20225;-76
2023/12/28 08:09:13;;;;;;;11.60;10.90;;;8.30;99.90;;;;;;4905439;29;20634;-78
2023/12/28 08:11:40;;;;;;;9.33;8.73;;;8.30;99.90;;;;;;4903507;29;20227;-76
2023/12/28 08:14:07;;;;;;;11.53;10.80;;;8.40;99.90;;;;;;4899379;29;20238;-76
2023/12/28 08:16:34;;;;;;;10.87;10.17;;;8.50;99.90;;;;;;4899859;29;20362;-76
2023/12/28 08:19:02;;;;;;;10.00;9.40;;;8.50;99.90;;;;;;4899803;29;20215;-76
2023/12/28 08:21:28;;;;;;;10.10;9.43;;;8.60;99.90;;;;;;4900193;29;20696;-76
2023/12/28 08:23:57;;;;;;;6.80;6.30;;;8.60;99.90;;;;;;4901154;29;20236;-76
2023/12/28 08:26:24;;;;;;;7.97;7.37;;;8.60;99.90;;;;;;4904611;29;20287;-76
2023/12/28 08:28:51;;;;;;;8.50;7.90;;;8.50;99.90;;;;;;4899965;29;20695;-76
2023/12/28 08:31:18;;;;;;;7.90;7.37;;;8.50;99.90;;;;;;4899349;29;20239;-76
2023/12/28 08:33:45;;;;;;;7.73;7.23;;;8.40;99.90;;;;;;4899418;29;20203;-76
2023/12/28 08:36:13;;;;;;;6.17;5.73;;;8.40;99.90;;;;;;4897740;29;20547;-76
2023/12/28 08:38:39;;;;;;;4.53;4.23;;;8.40;99.90;;;;;;4899234;29;20208;-76
2023/12/28 08:41:08;;;;;;;5.33;4.83;;;8.40;99.90;;;;;;4898213;29;20264;-76
2023/12/28 08:43:36;;;;;;;6.50;6.10;;;8.40;99.90;;;;;;4896361;29;20209;-77
2023/12/28 08:46:03;;;;;;;7.53;6.97;;;8.30;99.90;;;;;;4898850;29;20639;-77
2023/12/28 08:48:29;;;;;;;11.00;10.20;;;8.40;99.90;;;;;;4900672;29;20498;-76
2023/12/28 08:50:56;;;;;;;10.10;9.50;;;8.40;99.90;;;;;;4899210;29;20204;-77
2023/12/28 08:53:23;;;;;;;4.90;4.50;;;8.40;99.90;;;;;;4898638;29;20240;-77
2023/12/28 08:55:50;;;;;;;3.57;3.27;;;8.50;99.90;;;;;;4897221;29;20583;-76
2023/12/28 08:58:18;;;;;;;4.17;3.77;;;8.50;99.90;;;;;;4901376;29;20229;-77
2023/12/28 09:00:46;;;;;;;4.57;4.17;;;8.50;99.90;;;;;;4901691;29;20207;-76
2023/12/28 09:03:13;;;;;;;3.63;3.33;;;8.60;99.90;;;;;;4901199;29;20594;-76
2023/12/28 09:05:40;;;;;;;3.80;3.50;;;8.70;99.90;;;;;;4900953;29;20204;-76
2023/12/28 09:08:07;;;;;;;3.50;3.20;;;8.70;99.90;;;;;;4894622;29;20284;-77
2023/12/28 09:10:34;;;;;;;3.73;3.13;;;8.80;99.90;;;;;;4898007;29;20215;-76
2023/12/28 09:13:01;;;;;;;3.63;3.33;;;8.90;99.90;;;;;;4900260;29;20193;-77
2023/12/28 09:15:29;;;;;;;3.50;3.20;;;8.90;99.90;;;;;;4900633;29;20208;-77
2023/12/28 09:17:57;;;;;;;3.33;3.07;;;9.00;99.90;;;;;;4900026;29;20280;-77
2023/12/28 09:20:23;;;;;;;3.70;3.40;;;9.10;99.90;;;;;;4901343;29;20224;-76
2023/12/28 09:22:53;;;;;;;4.17;3.87;;;9.10;99.90;;;;;;4902003;29;20676;-77
2023/12/28 09:25:20;;;;;;;4.07;3.40;;;9.20;99.90;;;;;;4902088;29;20209;-77
2023/12/28 09:27:47;;;;;;;7.57;7.07;;;9.30;99.90;;;;;;4900552;29;20216;-77
2023/12/28 09:30:14;;;;;;;7.37;6.80;;;9.40;99.90;;;;;;4900860;29;20205;-77
2023/12/28 09:32:42;;;;;;;10.10;9.43;;;9.40;99.90;;;;;;4900580;29;20201;-76
2023/12/28 09:35:09;;;;;;;11.67;10.87;;;9.40;99.90;;;;;;4899941;29;20201;-78
2023/12/28 09:37:36;;;;;;;11.70;10.80;;;9.30;99.90;;;;;;4896474;29;20223;-78
2023/12/28 09:40:03;;;;;;;10.23;9.53;;;9.20;99.90;;;;;;4898425;29;20232;-77
2023/12/28 09:42:38;;;;;;;11.23;10.53;;;9.20;99.90;;;;;;4898204;29;20212;-76
2023/12/28 09:45:06;;;;;;;3.87;3.37;;;9.30;99.90;;;;;;4900588;29;20200;-77
2023/12/28 09:47:33;;;;;;;3.67;3.33;;;9.30;99.90;;;;;;4905017;29;20235;-76
2023/12/28 09:50:01;;;;;;;3.60;3.30;;;9.30;99.90;;;;;;4895763;29;20243;-77
2023/12/28 09:52:28;;;;;;;3.73;3.43;;;9.40;99.90;;;;;;4898304;29;20209;-76
2023/12/28 09:54:55;;;;;;;9.20;8.70;;;9.40;99.90;;;;;;4897609;29;20708;-76
2023/12/28 09:57:23;;;;;;;10.10;9.40;;;9.40;99.90;;;;;;4894565;29;20241;-77
2023/12/28 09:59:50;;;;;;;4.23;3.70;;;9.50;99.90;;;;;;4893961;29;20209;-77
2023/12/28 10:02:17;;;;;;;10.60;9.90;;;9.40;99.90;;;;;;4902988;29;20254;-76
2023/12/28 10:04:44;;;;;;;9.20;8.50;;;9.50;99.90;;;;;;4905531;29;20212;-77
2023/12/28 10:07:12;;;;;;;4.47;3.50;;;9.50;99.90;;;;;;4909285;29;20245;-77
2023/12/28 10:09:39;;;;;;;4.70;4.40;;;9.50;99.90;;;;;;4914365;29;20211;-77
2023/12/28 10:12:08;;;;;;;3.70;3.40;;;9.60;99.90;;;;;;4905604;29;20271;-76
2023/12/28 10:14:35;;;;;;;10.80;10.10;;;9.70;99.90;;;;;;4897929;29;20209;-76
2023/12/28 10:17:03;;;;;;;10.30;9.70;;;9.80;99.90;;;;;;4899250;29;20252;-76
2023/12/28 10:19:29;;;;;;;10.90;10.20;;;9.90;99.90;;;;;;4899306;29;20244;-76
2023/12/28 10:21:56;;;;;;;10.77;10.07;;;10.10;99.90;;;;;;4899677;29;20253;-76
2023/12/28 10:24:25;;;;;;;10.57;9.98;;;10.20;99.90;;;;;;4896581;29;20523;-76
2023/12/28 10:26:53;;;;;;;11.70;10.90;;;10.30;99.90;;;;;;4897967;29;20602;-76
2023/12/28 10:29:20;;;;;;;11.67;10.77;;;10.30;99.90;;;;;;4898210;29;20681;-76
2023/12/28 10:31:49;;;;;;;12.33;11.33;;;10.40;99.90;;;;;;4898093;29;20628;-80
2023/12/28 10:34:16;;;;;;;12.27;11.27;;;10.50;99.90;;;;;;4896229;29;20214;-76
2023/12/28 10:36:43;;;;;;;12.27;11.20;;;10.60;99.90;;;;;;4894072;29;20247;-77
2023/12/28 10:39:11;;;;;;;13.37;12.27;;;10.70;99.90;;;;;;4894034;29;20202;-76
2023/12/28 10:41:44;;;;;;;11.63;10.83;;;10.80;99.90;;;;;;4892397;29;20202;-76
2023/12/28 10:44:15;;;;;;;12.20;11.30;;;10.80;99.90;;;;;;4899450;29;20207;-77
2023/12/28 10:46:45;;;;;;;12.90;11.90;;;10.90;99.90;;;;;;4897454;29;20235;-76
2023/12/28 10:49:13;;;;;;;12.67;11.67;;;10.90;99.90;;;;;;4897494;29;20203;-76
2023/12/28 10:51:43;;;;;;;12.80;11.70;;;11.00;99.90;;;;;;4899392;29;20203;-76
2023/12/28 10:54:21;;;;;;;11.80;11.00;;;11.10;99.90;;;;;;4899514;29;20314;-76
2023/12/28 10:56:59;;;;;;;11.80;11.00;;;11.20;99.90;;;;;;4897098;29;20330;-76
2023/12/28 10:59:39;;;;;;;11.80;11.07;;;11.30;99.90;;;;;;4899275;29;20252;-76
2023/12/28 11:02:08;;;;;;;11.07;10.37;;;11.40;99.90;;;;;;4898462;29;20689;-77
2023/12/28 11:04:42;;;;;;;11.73;11.03;;;11.50;99.90;;;;;;4899212;29;20299;-76
2023/12/28 11:07:12;;;;;;;11.77;10.90;;;11.60;99.90;;;;;;4898194;29;20240;-77
2023/12/28 11:09:41;;;;;;;12.23;11.43;;;11.60;99.90;;;;;;4898208;29;20227;-77
2023/12/28 11:12:11;;;;;;;11.10;10.40;;;11.70;99.90;;;;;;4898018;29;20205;-76
2023/12/28 11:14:40;;;;;;;11.93;11.20;;;11.80;99.90;;;;;;4896703;29;20219;-75
2023/12/28 11:17:07;;;;;;;11.57;10.87;;;11.90;99.90;;;;;;4891645;29;20224;-75
2023/12/28 11:19:35;;;;;;;11.10;10.40;;;12.00;99.90;;;;;;4896000;29;20656;-75
2023/12/28 11:22:03;;;;;;;10.67;10.07;;;12.10;99.90;;;;;;4895001;29;20222;-75
2023/12/28 11:24:31;;;;;;;10.50;9.90;;;12.20;99.90;;;;;;4896150;29;20232;-75
2023/12/28 11:26:58;;;;;;;10.00;9.40;;;12.30;99.90;;;;;;4896211;29;20279;-75
2023/12/28 11:29:26;;;;;;;9.90;9.30;;;12.40;99.90;;;;;;4895427;29;20204;-75
2023/12/28 11:31:53;;;;;;;10.17;9.47;;;12.50;99.90;;;;;;4896694;29;20224;-76
2023/12/28 11:34:25;;;;;;;10.20;9.60;;;12.50;99.90;;;;;;4896746;29;20285;-75
2023/12/28 11:36:54;;;;;;;10.73;10.10;;;12.60;99.90;;;;;;4896726;29;20224;-75
2023/12/28 11:39:31;;;;;;;10.47;9.77;;;12.70;99.90;;;;;;4899948;29;20234;-75
2023/12/28 11:42:03;;;;;;;10.30;9.60;;;12.80;99.90;;;;;;4898561;29;20204;-75
2023/12/28 11:44:31;;;;;;;9.93;9.33;;;12.80;99.90;;;;;;4898663;29;20705;-75
2023/12/28 11:46:58;;;;;;;10.03;9.43;;;12.90;99.90;;;;;;4899823;29;20713;-75
2023/12/28 11:49:29;;;;;;;11.40;10.60;;;12.90;99.90;;;;;;4899765;29;20197;-75
2023/12/28 11:51:58;;;;;;;12.50;11.60;;;12.90;99.90;;;;;;4892769;29;20257;-75
2023/12/28 11:54:26;;;;;;;12.60;11.60;;;12.90;99.90;;;;;;4899135;29;20239;-76
2023/12/28 11:56:53;;;;;;;11.60;10.90;;;12.90;99.90;;;;;;4899904;29;20320;-75
2023/12/28 11:59:20;;;;;;;11.43;10.63;;;12.80;99.90;;;;;;4898663;29;20221;-76
2023/12/28 12:01:52;;;;;;;10.67;9.97;;;12.80;99.90;;;;;;4899552;29;20203;-76
2023/12/28 12:04:19;;;;;;;11.23;10.50;;;12.80;99.90;;;;;;4899652;29;20196;-76
2023/12/28 12:06:47;;;;;;;11.00;10.30;;;12.90;99.90;;;;;;4898111;29;20228;-76
2023/12/28 12:09:14;;;;;;;10.90;10.20;;;12.90;99.90;;;;;;4903881;29;20239;-76
2023/12/28 12:11:41;;;;;;;10.63;9.93;;;12.90;99.90;;;;;;4901002;29;20235;-77
2023/12/28 12:14:10;;;;;;;10.20;9.60;;;12.90;99.90;;;;;;4902897;29;20205;-77
2023/12/28 12:16:37;;;;;;;10.87;10.17;;;12.80;99.90;;;;;;4903434;29;20232;-77
2023/12/28 12:19:06;;;;;;;9.80;9.30;;;12.70;99.90;;;;;;4903391;29;20228;-77
2023/12/28 12:21:34;;;;;;;10.90;10.20;;;12.60;99.90;;;;;;4902969;29;20204;-77
2023/12/28 12:24:01;;;;;;;10.53;9.93;;;12.60;99.90;;;;;;4901846;29;20201;-77
2023/12/28 12:26:30;;;;;;;10.70;10.10;;;12.50;99.90;;;;;;4901584;29;20316;-78
2023/12/28 12:28:57;;;;;;;10.70;10.10;;;12.40;99.90;;;;;;4901769;29;20225;-76
2023/12/28 12:31:24;;;;;;;10.20;9.60;;;12.30;99.90;;;;;;4903227;29;20211;-80
2023/12/28 12:33:51;;;;;;;10.00;9.40;;;12.20;99.90;;;;;;4915655;29;20209;-83
2023/12/28 12:36:21;;;;;;;10.83;10.13;;;12.10;99.90;;;;;;4892280;29;20723;-77
2023/12/28 12:38:48;;;;;;;9.90;9.30;;;12.00;99.90;;;;;;4903007;29;20259;-76
2023/12/28 12:41:15;;;;;;;10.20;9.60;;;12.00;99.90;;;;;;4906560;29;20212;-76
2023/12/28 12:43:42;;;;;;;10.03;9.43;;;11.90;99.90;;;;;;4906186;29;20670;-76
2023/12/28 12:46:09;;;;;;;10.37;9.77;;;11.80;99.90;;;;;;4895087;29;20691;-76
2023/12/28 12:48:36;;;;;;;10.87;10.17;;;11.80;99.90;;;;;;4897896;29;20220;-75